Terminal Aerodrome Forecast
Issued by NWS Burlington, VT

Home | Current Version | Previous Version | Text Only | Print | Product List | Glossary On
Versions: 1 2 3 4 5 6 7 8 9 10 11 12 13 14 15 16
947
FTUS41 KBTV 261736
TAFBTV
TAF
KBTV 261736Z 2618/2718 19012KT P6SM FEW050 FEW200
     FM262300 20007KT P6SM SCT070 BKN110
     FM270300 19006KT P6SM VCSH SCT050 BKN080
     FM270600 18008KT P6SM -SHRA BKN035 OVC070
     FM271300 19011KT P6SM VCSH SCT025 OVC035
     FM271600 20011KT P6SM SCT020 BKN035 OVC050=

USA.gov is the U.S. government's official web portal to all federal, state and local government web resources and services.